Time,TemperatureF,DewpointF,PressureIn,WindDirection,WindDirectionDegrees,WindSpeedMPH,WindSpeedGustMPH,Humidity,HourlyPrecipIn,Conditions,Clouds,dailyrainin,SoftwareType,DateUTC
2013-12-05 00:00:00,26.0,11.0,-100.00,ENE,76,9.0,19.0,53,0.00,,,0.00,,2013-12-05 09:00:00,
2013-12-05 00:43:00,26.0,11.0,-100.00,ENE,76,9.0,19.0,53,0.00,,,0.00,,2013-12-05 09:43:00,
2013-12-05 00:54:00,26.0,11.0,-100.00,ENE,76,9.0,19.0,53,0.00,,,0.00,,2013-12-05 09:54:00,
2013-12-05 09:42:00,28.0,4.0,-100.00,ENE,72,7.0,14.0,35,-99.99,,,-99.99,,2013-12-05 18:42:00,
2013-12-05 10:42:00,28.0,4.0,-100.00,ENE,74,8.0,12.0,35,0.00,,,0.00,,2013-12-05 19:42:00,
2013-12-05 11:00:00,29.0,3.0,-100.00,ENE,70,9.0,15.0,33,0.00,,,0.00,,2013-12-05 20:00:00,
2013-12-05 11:42:00,29.0,3.0,-100.00,ENE,70,9.0,15.0,33,0.00,,,0.00,,2013-12-05 20:42:00,
2013-12-05 11:52:00,29.0,3.0,-100.00,ENE,70,9.0,15.0,33,0.00,,,0.00,,2013-12-05 20:52:00,
2013-12-05 13:42:00,28.0,3.0,-100.00,ENE,73,8.0,16.0,34,-99.99,,,0.00,,2013-12-05 22:42:00,
2013-12-05 14:43:00,28.0,4.0,-100.00,ENE,73,8.0,15.0,35,-99.99,,,-99.99,,2013-12-05 23:43:00,
2013-12-05 15:00:00,27.0,4.0,-100.00,ENE,74,8.0,15.0,37,-99.99,,,0.00,,2013-12-06 00:00:00,
2013-12-05 15:42:00,27.0,4.0,-100.00,ENE,74,8.0,15.0,37,-99.99,,,0.00,,2013-12-06 00:42:00,
2013-12-05 15:52:00,27.0,4.0,-100.00,ENE,74,8.0,15.0,37,-99.99,,,0.00,,2013-12-06 00:52:00,
2013-12-05 16:00:00,26.0,7.0,-100.00,ENE,78,7.0,13.0,44,-99.99,,,0.00,,2013-12-06 01:00:00,
2013-12-05 16:42:00,26.0,7.0,-100.00,ENE,78,7.0,13.0,44,-99.99,,,0.00,,2013-12-06 01:42:00,
2013-12-05 16:52:00,26.0,7.0,-100.00,ENE,78,7.0,13.0,44,-99.99,,,0.00,,2013-12-06 01:52:00,
2013-12-05 17:00:00,24.0,8.0,-100.00,East,85,7.0,12.0,50,0.00,,,0.00,,2013-12-06 02:00:00,
2013-12-05 17:42:00,24.0,8.0,-100.00,East,85,7.0,12.0,50,0.00,,,0.00,,2013-12-06 02:42:00,
2013-12-05 17:52:00,24.0,8.0,-100.00,East,85,7.0,12.0,50,0.00,,,0.00,,2013-12-06 02:52:00,
2013-12-05 18:00:00,23.0,7.0,-100.00,ENE,70,7.0,13.0,49,0.00,,,0.00,,2013-12-06 03:00:00,
2013-12-05 18:43:00,23.0,7.0,-100.00,ENE,70,7.0,13.0,49,0.00,,,0.00,,2013-12-06 03:43:00,
2013-12-05 18:53:00,23.0,7.0,-100.00,ENE,70,7.0,13.0,49,0.00,,,0.00,,2013-12-06 03:53:00,
2013-12-05 19:00:00,22.0,12.0,-100.00,ENE,72,8.0,13.0,64,0.00,,,0.00,,2013-12-06 04:00:00,
2013-12-05 19:43:00,22.0,12.0,-100.00,ENE,72,8.0,13.0,64,0.00,,,0.00,,2013-12-06 04:43:00,
2013-12-05 19:53:00,22.0,12.0,-100.00,ENE,72,8.0,13.0,64,0.00,,,0.00,,2013-12-06 04:53:00,
2013-12-05 20:00:00,22.0,15.0,-100.00,ENE,71,9.0,16.0,74,0.00,,,0.00,,2013-12-06 05:00:00,
2013-12-05 20:43:00,22.0,15.0,-100.00,ENE,71,9.0,16.0,74,0.00,,,0.00,,2013-12-06 05:43:00,
2013-12-05 20:53:00,22.0,15.0,-100.00,ENE,71,9.0,16.0,74,0.00,,,0.00,,2013-12-06 05:53:00,
2013-12-05 21:00:00,21.0,14.0,-100.00,ENE,78,8.0,15.0,74,0.00,,,0.00,,2013-12-06 06:00:00,
2013-12-05 21:42:00,21.0,14.0,-100.00,ENE,78,8.0,15.0,74,0.00,,,0.00,,2013-12-06 06:42:00,
2013-12-05 21:52:00,21.0,14.0,-100.00,ENE,78,8.0,15.0,74,0.00,,,0.00,,2013-12-06 06:52:00,
2013-12-05 22:00:00,20.0,14.0,-100.00,ENE,67,8.0,15.0,78,0.00,,,0.00,,2013-12-06 07:00:00,
2013-12-05 22:42:00,20.0,14.0,-100.00,ENE,67,8.0,15.0,78,0.00,,,0.00,,2013-12-06 07:42:00,
2013-12-05 22:52:00,20.0,14.0,-100.00,ENE,67,8.0,15.0,78,0.00,,,0.00,,2013-12-06 07:52:00,
2013-12-05 23:00:00,21.0,15.0,-100.00,ENE,71,6.0,14.0,77,0.00,,,0.00,,2013-12-06 08:00:00,
2013-12-05 23:42:00,21.0,15.0,-100.00,ENE,71,6.0,14.0,77,0.00,,,0.00,,2013-12-06 08:42:00,
2013-12-05 23:52:00,21.0,15.0,-100.00,ENE,71,6.0,14.0,77,0.00,,,0.00,,2013-12-06 08:52:00,